sensor_id;sensor_type;location;lat;lon;timestamp;P1;durP1;ratioP1;P2;durP2;ratioP2
53907;SDS011;40469;47.998;7.794;2022-12-07T00:01:26;24.52;;;13.23;;
53907;SDS011;40469;47.998;7.794;2022-12-07T00:03:54;24.23;;;12.90;;
53907;SDS011;40469;47.998;7.794;2022-12-07T00:06:25;26.50;;;13.70;;
53907;SDS011;40469;47.998;7.794;2022-12-07T00:08:51;26.02;;;12.82;;
53907;SDS011;40469;47.998;7.794;2022-12-07T00:11:18;29.73;;;14.82;;
53907;SDS011;40469;47.998;7.794;2022-12-07T00:13:45;27.73;;;13.57;;
53907;SDS011;40469;47.998;7.794;2022-12-07T00:16:13;28.85;;;14.30;;
53907;SDS011;40469;47.998;7.794;2022-12-07T00:18:40;29.05;;;13.77;;
53907;SDS011;40469;47.998;7.794;2022-12-07T00:21:09;29.75;;;13.73;;
53907;SDS011;40469;47.998;7.794;2022-12-07T00:23:37;24.65;;;13.80;;
53907;SDS011;40469;47.998;7.794;2022-12-07T00:26:05;33.28;;;15.13;;
53907;SDS011;40469;47.998;7.794;2022-12-07T00:28:32;28.30;;;15.02;;
53907;SDS011;40469;47.998;7.794;2022-12-07T00:31:06;34.08;;;15.73;;
53907;SDS011;40469;47.998;7.794;2022-12-07T00:33:33;31.48;;;14.98;;
53907;SDS011;40469;47.998;7.794;2022-12-07T00:36:00;29.95;;;15.77;;
53907;SDS011;40469;47.998;7.794;2022-12-07T00:38:27;33.78;;;16.05;;
53907;SDS011;40469;47.998;7.794;2022-12-07T00:40:55;31.55;;;18.23;;
53907;SDS011;40469;47.998;7.794;2022-12-07T00:43:25;31.48;;;14.18;;
53907;SDS011;40469;47.998;7.794;2022-12-07T00:45:51;31.30;;;16.27;;
53907;SDS011;40469;47.998;7.794;2022-12-07T00:48:17;28.17;;;15.45;;
53907;SDS011;40469;47.998;7.794;2022-12-07T00:50:42;32.53;;;16.50;;
53907;SDS011;40469;47.998;7.794;2022-12-07T00:53:07;31.40;;;16.27;;
53907;SDS011;40469;47.998;7.794;2022-12-07T00:55:33;32.20;;;15.40;;
53907;SDS011;40469;47.998;7.794;2022-12-07T00:57:59;31.90;;;16.00;;
53907;SDS011;40469;47.998;7.794;2022-12-07T01:00:24;30.63;;;14.90;;
53907;SDS011;40469;47.998;7.794;2022-12-07T01:02:49;30.58;;;15.30;;
53907;SDS011;40469;47.998;7.794;2022-12-07T01:05:15;28.65;;;14.52;;
53907;SDS011;40469;47.998;7.794;2022-12-07T01:07:40;28.73;;;15.93;;
53907;SDS011;40469;47.998;7.794;2022-12-07T01:10:06;29.52;;;15.30;;
53907;SDS011;40469;47.998;7.794;2022-12-07T01:12:31;32.33;;;16.05;;
53907;SDS011;40469;47.998;7.794;2022-12-07T01:14:57;27.15;;;15.80;;
53907;SDS011;40469;47.998;7.794;2022-12-07T01:17:22;32.88;;;16.10;;
53907;SDS011;40469;47.998;7.794;2022-12-07T01:19:47;34.75;;;16.58;;
53907;SDS011;40469;47.998;7.794;2022-12-07T01:22:13;30.42;;;15.55;;
53907;SDS011;40469;47.998;7.794;2022-12-07T01:24:38;33.17;;;16.02;;
53907;SDS011;40469;47.998;7.794;2022-12-07T01:27:03;31.38;;;16.02;;
53907;SDS011;40469;47.998;7.794;2022-12-07T01:29:28;30.88;;;16.40;;
53907;SDS011;40469;47.998;7.794;2022-12-07T01:31:54;33.47;;;16.38;;
53907;SDS011;40469;47.998;7.794;2022-12-07T01:34:19;33.50;;;16.65;;
53907;SDS011;40469;47.998;7.794;2022-12-07T01:36:44;33.83;;;17.38;;
53907;SDS011;40469;47.998;7.794;2022-12-07T01:39:10;32.72;;;16.70;;
53907;SDS011;40469;47.998;7.794;2022-12-07T01:41:37;31.63;;;16.35;;
53907;SDS011;40469;47.998;7.794;2022-12-07T01:46:58;33.13;;;17.40;;
53907;SDS011;40469;47.998;7.794;2022-12-07T01:54:33;28.23;;;15.25;;
53907;SDS011;40469;47.998;7.794;2022-12-07T01:56:59;33.03;;;15.77;;
53907;SDS011;40469;47.998;7.794;2022-12-07T01:59:26;27.98;;;15.57;;
53907;SDS011;40469;47.998;7.794;2022-12-07T02:01:52;32.28;;;16.20;;
53907;SDS011;40469;47.998;7.794;2022-12-07T02:04:19;29.40;;;14.32;;
53907;SDS011;40469;47.998;7.794;2022-12-07T02:06:46;31.20;;;14.68;;
53907;SDS011;40469;47.998;7.794;2022-12-07T02:09:11;29.30;;;15.05;;
53907;SDS011;40469;47.998;7.794;2022-12-07T02:11:37;31.77;;;15.00;;
53907;SDS011;40469;47.998;7.794;2022-12-07T02:14:03;30.23;;;14.20;;
53907;SDS011;40469;47.998;7.794;2022-12-07T02:16:42;29.65;;;15.10;;
53907;SDS011;40469;47.998;7.794;2022-12-07T02:25:36;33.75;;;15.02;;
53907;SDS011;40469;47.998;7.794;2022-12-07T02:30:52;26.52;;;12.85;;
53907;SDS011;40469;47.998;7.794;2022-12-07T02:33:33;22.67;;;12.00;;
53907;SDS011;40469;47.998;7.794;2022-12-07T02:38:35;28.63;;;13.90;;
53907;SDS011;40469;47.998;7.794;2022-12-07T02:44:06;26.55;;;13.70;;
53907;SDS011;40469;47.998;7.794;2022-12-07T02:46:38;27.95;;;14.73;;
53907;SDS011;40469;47.998;7.794;2022-12-07T02:49:07;25.83;;;13.27;;
53907;SDS011;40469;47.998;7.794;2022-12-07T02:51:38;26.17;;;13.38;;
53907;SDS011;40469;47.998;7.794;2022-12-07T02:54:08;28.77;;;14.35;;
53907;SDS011;40469;47.998;7.794;2022-12-07T02:56:39;27.17;;;14.63;;
53907;SDS011;40469;47.998;7.794;2022-12-07T03:08:00;31.23;;;15.98;;
53907;SDS011;40469;47.998;7.794;2022-12-07T03:10:38;31.23;;;15.88;;
53907;SDS011;40469;47.998;7.794;2022-12-07T03:13:12;32.70;;;16.00;;
53907;SDS011;40469;47.998;7.794;2022-12-07T03:16:05;32.97;;;15.43;;
53907;SDS011;40469;47.998;7.794;2022-12-07T03:18:38;31.33;;;14.85;;
53907;SDS011;40469;47.998;7.794;2022-12-07T03:21:10;33.10;;;16.48;;
53907;SDS011;40469;47.998;7.794;2022-12-07T03:23:40;33.78;;;15.63;;
53907;SDS011;40469;47.998;7.794;2022-12-07T03:26:08;28.70;;;15.15;;
53907;SDS011;40469;47.998;7.794;2022-12-07T03:28:38;29.27;;;14.55;;
53907;SDS011;40469;47.998;7.794;2022-12-07T03:31:18;29.67;;;14.95;;
53907;SDS011;40469;47.998;7.794;2022-12-07T03:33:53;31.80;;;15.15;;
53907;SDS011;40469;47.998;7.794;2022-12-07T03:36:29;33.42;;;14.48;;
53907;SDS011;40469;47.998;7.794;2022-12-07T03:39:03;31.95;;;15.65;;
53907;SDS011;40469;47.998;7.794;2022-12-07T03:41:37;29.20;;;13.93;;
53907;SDS011;40469;47.998;7.794;2022-12-07T03:44:04;26.65;;;13.32;;
53907;SDS011;40469;47.998;7.794;2022-12-07T03:54:23;29.33;;;14.07;;
53907;SDS011;40469;47.998;7.794;2022-12-07T03:56:53;25.83;;;14.30;;
53907;SDS011;40469;47.998;7.794;2022-12-07T03:59:20;26.73;;;13.55;;
53907;SDS011;40469;47.998;7.794;2022-12-07T04:01:54;28.38;;;13.55;;
53907;SDS011;40469;47.998;7.794;2022-12-07T04:04:22;28.93;;;15.00;;
53907;SDS011;40469;47.998;7.794;2022-12-07T04:06:49;27.55;;;13.18;;
53907;SDS011;40469;47.998;7.794;2022-12-07T04:09:15;29.10;;;14.02;;
53907;SDS011;40469;47.998;7.794;2022-12-07T04:11:42;25.50;;;12.90;;
53907;SDS011;40469;47.998;7.794;2022-12-07T04:14:08;27.08;;;12.07;;
53907;SDS011;40469;47.998;7.794;2022-12-07T04:16:49;25.00;;;12.23;;
53907;SDS011;40469;47.998;7.794;2022-12-07T04:19:15;24.42;;;12.90;;
53907;SDS011;40469;47.998;7.794;2022-12-07T04:21:42;23.08;;;12.05;;
53907;SDS011;40469;47.998;7.794;2022-12-07T04:24:08;22.85;;;12.82;;
53907;SDS011;40469;47.998;7.794;2022-12-07T04:26:34;24.50;;;12.13;;
53907;SDS011;40469;47.998;7.794;2022-12-07T04:28:59;21.33;;;11.40;;
53907;SDS011;40469;47.998;7.794;2022-12-07T04:31:25;22.50;;;11.48;;
53907;SDS011;40469;47.998;7.794;2022-12-07T04:33:50;22.58;;;11.05;;
53907;SDS011;40469;47.998;7.794;2022-12-07T04:36:15;23.20;;;11.82;;
53907;SDS011;40469;47.998;7.794;2022-12-07T04:38:41;19.80;;;10.93;;
53907;SDS011;40469;47.998;7.794;2022-12-07T04:41:07;23.30;;;11.90;;
53907;SDS011;40469;47.998;7.794;2022-12-07T04:43:34;23.88;;;12.13;;
53907;SDS011;40469;47.998;7.794;2022-12-07T04:46:00;28.13;;;12.32;;
53907;SDS011;40469;47.998;7.794;2022-12-07T04:48:25;24.50;;;11.70;;
53907;SDS011;40469;47.998;7.794;2022-12-07T04:50:50;23.40;;;12.55;;
53907;SDS011;40469;47.998;7.794;2022-12-07T04:53:16;23.73;;;12.57;;
53907;SDS011;40469;47.998;7.794;2022-12-07T04:55:41;22.17;;;12.13;;
53907;SDS011;40469;47.998;7.794;2022-12-07T04:58:06;22.92;;;12.48;;
53907;SDS011;40469;47.998;7.794;2022-12-07T05:00:32;17.45;;;10.95;;
53907;SDS011;40469;47.998;7.794;2022-12-07T05:02:57;21.08;;;11.65;;
53907;SDS011;40469;47.998;7.794;2022-12-07T05:05:23;23.67;;;12.25;;
53907;SDS011;40469;47.998;7.794;2022-12-07T05:07:49;20.90;;;11.13;;
53907;SDS011;40469;47.998;7.794;2022-12-07T05:10:14;20.55;;;10.80;;
53907;SDS011;40469;47.998;7.794;2022-12-07T05:12:40;18.40;;;10.73;;
53907;SDS011;40469;47.998;7.794;2022-12-07T05:15:05;18.65;;;10.35;;
53907;SDS011;40469;47.998;7.794;2022-12-07T05:17:30;17.73;;;10.07;;
53907;SDS011;40469;47.998;7.794;2022-12-07T05:19:56;17.20;;;8.98;;
53907;SDS011;40469;47.998;7.794;2022-12-07T05:22:21;15.57;;;8.07;;
53907;SDS011;40469;47.998;7.794;2022-12-07T05:24:46;17.08;;;8.98;;
53907;SDS011;40469;47.998;7.794;2022-12-07T05:27:12;15.57;;;8.27;;
53907;SDS011;40469;47.998;7.794;2022-12-07T05:29:37;14.43;;;9.18;;
53907;SDS011;40469;47.998;7.794;2022-12-07T05:32:03;15.85;;;8.25;;
53907;SDS011;40469;47.998;7.794;2022-12-07T05:34:28;12.35;;;6.90;;
53907;SDS011;40469;47.998;7.794;2022-12-07T05:36:54;12.68;;;7.47;;
53907;SDS011;40469;47.998;7.794;2022-12-07T05:39:19;14.93;;;7.20;;
53907;SDS011;40469;47.998;7.794;2022-12-07T05:41:44;14.07;;;7.70;;
53907;SDS011;40469;47.998;7.794;2022-12-07T05:44:28;12.82;;;6.97;;
53907;SDS011;40469;47.998;7.794;2022-12-07T05:46:53;12.00;;;7.03;;
53907;SDS011;40469;47.998;7.794;2022-12-07T05:49:19;13.90;;;8.02;;
53907;SDS011;40469;47.998;7.794;2022-12-07T05:51:44;15.85;;;8.30;;
53907;SDS011;40469;47.998;7.794;2022-12-07T05:54:10;14.93;;;7.88;;
53907;SDS011;40469;47.998;7.794;2022-12-07T05:56:35;12.25;;;6.70;;
53907;SDS011;40469;47.998;7.794;2022-12-07T05:59:00;12.70;;;6.40;;
53907;SDS011;40469;47.998;7.794;2022-12-07T06:01:44;9.23;;;5.40;;
53907;SDS011;40469;47.998;7.794;2022-12-07T06:04:09;9.40;;;5.68;;
53907;SDS011;40469;47.998;7.794;2022-12-07T06:06:35;11.70;;;5.68;;
53907;SDS011;40469;47.998;7.794;2022-12-07T06:09:00;40.30;;;21.83;;
53907;SDS011;40469;47.998;7.794;2022-12-07T06:11:26;12.55;;;7.25;;
53907;SDS011;40469;47.998;7.794;2022-12-07T06:14:09;13.43;;;6.63;;
53907;SDS011;40469;47.998;7.794;2022-12-07T06:16:35;10.80;;;5.97;;
53907;SDS011;40469;47.998;7.794;2022-12-07T06:19:00;11.63;;;6.18;;
53907;SDS011;40469;47.998;7.794;2022-12-07T06:21:25;11.63;;;6.90;;
53907;SDS011;40469;47.998;7.794;2022-12-07T06:23:51;10.88;;;6.28;;
53907;SDS011;40469;47.998;7.794;2022-12-07T06:26:17;10.35;;;5.47;;
53907;SDS011;40469;47.998;7.794;2022-12-07T06:28:42;12.30;;;6.05;;
53907;SDS011;40469;47.998;7.794;2022-12-07T06:31:07;10.90;;;6.80;;
53907;SDS011;40469;47.998;7.794;2022-12-07T06:33:33;10.85;;;6.80;;
53907;SDS011;40469;47.998;7.794;2022-12-07T06:35:59;11.98;;;7.50;;
53907;SDS011;40469;47.998;7.794;2022-12-07T06:38:24;12.40;;;6.97;;
53907;SDS011;40469;47.998;7.794;2022-12-07T06:40:49;12.40;;;7.07;;
53907;SDS011;40469;47.998;7.794;2022-12-07T06:43:15;12.48;;;7.03;;
53907;SDS011;40469;47.998;7.794;2022-12-07T06:45:40;14.80;;;8.02;;
53907;SDS011;40469;47.998;7.794;2022-12-07T06:48:06;13.27;;;8.18;;
53907;SDS011;40469;47.998;7.794;2022-12-07T06:50:32;12.82;;;7.97;;
53907;SDS011;40469;47.998;7.794;2022-12-07T06:52:57;17.58;;;10.23;;
53907;SDS011;40469;47.998;7.794;2022-12-07T06:55:22;18.67;;;9.98;;
53907;SDS011;40469;47.998;7.794;2022-12-07T06:57:48;20.85;;;9.90;;
53907;SDS011;40469;47.998;7.794;2022-12-07T07:00:13;24.25;;;12.05;;
53907;SDS011;40469;47.998;7.794;2022-12-07T07:02:39;28.95;;;14.52;;
53907;SDS011;40469;47.998;7.794;2022-12-07T07:05:04;29.55;;;15.35;;
53907;SDS011;40469;47.998;7.794;2022-12-07T07:07:29;27.20;;;14.80;;
53907;SDS011;40469;47.998;7.794;2022-12-07T07:09:55;34.83;;;15.50;;
53907;SDS011;40469;47.998;7.794;2022-12-07T07:12:20;32.30;;;13.27;;
53907;SDS011;40469;47.998;7.794;2022-12-07T07:14:46;27.38;;;11.65;;
53907;SDS011;40469;47.998;7.794;2022-12-07T07:17:12;38.40;;;15.77;;
53907;SDS011;40469;47.998;7.794;2022-12-07T07:19:37;33.17;;;13.68;;
53907;SDS011;40469;47.998;7.794;2022-12-07T07:22:02;34.65;;;16.02;;
53907;SDS011;40469;47.998;7.794;2022-12-07T07:24:28;30.48;;;14.32;;
53907;SDS011;40469;47.998;7.794;2022-12-07T07:26:53;30.13;;;16.05;;
53907;SDS011;40469;47.998;7.794;2022-12-07T07:29:19;29.20;;;14.48;;
53907;SDS011;40469;47.998;7.794;2022-12-07T07:31:44;27.77;;;13.40;;
53907;SDS011;40469;47.998;7.794;2022-12-07T07:34:09;28.52;;;12.82;;
53907;SDS011;40469;47.998;7.794;2022-12-07T07:36:35;27.15;;;12.80;;
53907;SDS011;40469;47.998;7.794;2022-12-07T07:39:00;23.50;;;12.25;;
53907;SDS011;40469;47.998;7.794;2022-12-07T07:41:25;23.77;;;11.38;;
53907;SDS011;40469;47.998;7.794;2022-12-07T07:43:51;22.10;;;10.93;;
53907;SDS011;40469;47.998;7.794;2022-12-07T07:46:16;21.45;;;11.73;;
53907;SDS011;40469;47.998;7.794;2022-12-07T07:48:41;24.35;;;13.18;;
53907;SDS011;40469;47.998;7.794;2022-12-07T07:51:07;21.48;;;13.20;;
53907;SDS011;40469;47.998;7.794;2022-12-07T07:53:33;25.20;;;13.48;;
53907;SDS011;40469;47.998;7.794;2022-12-07T07:55:58;24.70;;;13.70;;
53907;SDS011;40469;47.998;7.794;2022-12-07T07:58:23;28.70;;;14.35;;
53907;SDS011;40469;47.998;7.794;2022-12-07T08:00:49;21.70;;;11.02;;
53907;SDS011;40469;47.998;7.794;2022-12-07T08:03:15;27.90;;;14.73;;
53907;SDS011;40469;47.998;7.794;2022-12-07T08:05:40;25.88;;;14.63;;
53907;SDS011;40469;47.998;7.794;2022-12-07T08:08:06;23.25;;;12.77;;
53907;SDS011;40469;47.998;7.794;2022-12-07T08:10:31;23.75;;;13.15;;
53907;SDS011;40469;47.998;7.794;2022-12-07T08:12:57;24.58;;;13.23;;
53907;SDS011;40469;47.998;7.794;2022-12-07T08:15:41;20.70;;;12.32;;
53907;SDS011;40469;47.998;7.794;2022-12-07T08:18:08;22.27;;;12.82;;
53907;SDS011;40469;47.998;7.794;2022-12-07T08:20:34;24.85;;;13.57;;
53907;SDS011;40469;47.998;7.794;2022-12-07T08:23:00;21.08;;;12.00;;
53907;SDS011;40469;47.998;7.794;2022-12-07T08:25:26;22.70;;;13.00;;
53907;SDS011;40469;47.998;7.794;2022-12-07T08:27:52;24.80;;;13.90;;
53907;SDS011;40469;47.998;7.794;2022-12-07T08:30:18;22.65;;;12.93;;
53907;SDS011;40469;47.998;7.794;2022-12-07T08:32:45;25.25;;;12.65;;
53907;SDS011;40469;47.998;7.794;2022-12-07T08:35:10;24.00;;;12.52;;
53907;SDS011;40469;47.998;7.794;2022-12-07T08:37:36;17.33;;;10.02;;
53907;SDS011;40469;47.998;7.794;2022-12-07T08:40:03;19.95;;;10.88;;
53907;SDS011;40469;47.998;7.794;2022-12-07T08:42:29;16.73;;;9.32;;
53907;SDS011;40469;47.998;7.794;2022-12-07T08:45:02;18.55;;;9.13;;
53907;SDS011;40469;47.998;7.794;2022-12-07T08:47:30;22.65;;;9.52;;
53907;SDS011;40469;47.998;7.794;2022-12-07T08:49:56;17.20;;;9.95;;
53907;SDS011;40469;47.998;7.794;2022-12-07T08:52:21;18.00;;;9.02;;
53907;SDS011;40469;47.998;7.794;2022-12-07T08:54:47;16.10;;;8.70;;
53907;SDS011;40469;47.998;7.794;2022-12-07T08:57:13;16.48;;;8.52;;
53907;SDS011;40469;47.998;7.794;2022-12-07T08:59:38;18.10;;;9.00;;
53907;SDS011;40469;47.998;7.794;2022-12-07T09:02:04;19.27;;;9.55;;
53907;SDS011;40469;47.998;7.794;2022-12-07T09:04:30;17.92;;;10.25;;
53907;SDS011;40469;47.998;7.794;2022-12-07T09:06:55;18.70;;;9.90;;
53907;SDS011;40469;47.998;7.794;2022-12-07T09:09:21;18.67;;;10.18;;
53907;SDS011;40469;47.998;7.794;2022-12-07T09:11:46;16.48;;;9.38;;
53907;SDS011;40469;47.998;7.794;2022-12-07T09:14:12;14.25;;;8.30;;
53907;SDS011;40469;47.998;7.794;2022-12-07T09:16:38;16.50;;;8.10;;
53907;SDS011;40469;47.998;7.794;2022-12-07T09:19:03;16.42;;;9.10;;
53907;SDS011;40469;47.998;7.794;2022-12-07T09:21:29;14.70;;;7.63;;
53907;SDS011;40469;47.998;7.794;2022-12-07T09:23:55;13.25;;;6.78;;
53907;SDS011;40469;47.998;7.794;2022-12-07T09:26:20;12.38;;;6.85;;
53907;SDS011;40469;47.998;7.794;2022-12-07T09:28:45;16.50;;;6.95;;
53907;SDS011;40469;47.998;7.794;2022-12-07T09:31:11;10.70;;;6.03;;
53907;SDS011;40469;47.998;7.794;2022-12-07T09:33:36;10.65;;;5.45;;
53907;SDS011;40469;47.998;7.794;2022-12-07T09:36:02;11.10;;;5.43;;
53907;SDS011;40469;47.998;7.794;2022-12-07T09:38:28;11.00;;;5.55;;
53907;SDS011;40469;47.998;7.794;2022-12-07T09:40:54;11.13;;;5.28;;
53907;SDS011;40469;47.998;7.794;2022-12-07T09:43:21;11.25;;;5.88;;
53907;SDS011;40469;47.998;7.794;2022-12-07T09:45:53;9.82;;;5.25;;
53907;SDS011;40469;47.998;7.794;2022-12-07T09:48:21;9.00;;;4.72;;
53907;SDS011;40469;47.998;7.794;2022-12-07T09:50:57;10.88;;;4.90;;
53907;SDS011;40469;47.998;7.794;2022-12-07T09:53:25;9.88;;;5.50;;
53907;SDS011;40469;47.998;7.794;2022-12-07T09:55:55;9.25;;;4.90;;
53907;SDS011;40469;47.998;7.794;2022-12-07T09:58:24;9.75;;;5.00;;
53907;SDS011;40469;47.998;7.794;2022-12-07T10:03:32;7.68;;;4.07;;
53907;SDS011;40469;47.998;7.794;2022-12-07T10:05:57;8.95;;;4.72;;
53907;SDS011;40469;47.998;7.794;2022-12-07T10:08:24;7.15;;;4.63;;
53907;SDS011;40469;47.998;7.794;2022-12-07T10:10:51;6.63;;;3.58;;
53907;SDS011;40469;47.998;7.794;2022-12-07T10:13:19;8.02;;;4.43;;
53907;SDS011;40469;47.998;7.794;2022-12-07T10:21:11;13.60;;;5.78;;
53907;SDS011;40469;47.998;7.794;2022-12-07T10:24:01;11.55;;;6.32;;
53907;SDS011;40469;47.998;7.794;2022-12-07T10:26:34;11.77;;;6.18;;
53907;SDS011;40469;47.998;7.794;2022-12-07T10:29:22;11.13;;;5.95;;
53907;SDS011;40469;47.998;7.794;2022-12-07T10:31:49;10.30;;;5.63;;
53907;SDS011;40469;47.998;7.794;2022-12-07T10:37:12;11.60;;;5.60;;
53907;SDS011;40469;47.998;7.794;2022-12-07T10:42:22;8.73;;;5.03;;
53907;SDS011;40469;47.998;7.794;2022-12-07T10:44:49;8.07;;;5.03;;
53907;SDS011;40469;47.998;7.794;2022-12-07T10:47:39;9.50;;;4.97;;
53907;SDS011;40469;47.998;7.794;2022-12-07T11:01:03;10.27;;;5.05;;
53907;SDS011;40469;47.998;7.794;2022-12-07T11:07:14;8.00;;;4.68;;
53907;SDS011;40469;47.998;7.794;2022-12-07T11:10:13;11.15;;;5.63;;
53907;SDS011;40469;47.998;7.794;2022-12-07T11:18:26;7.90;;;4.72;;
53907;SDS011;40469;47.998;7.794;2022-12-07T11:21:24;8.48;;;4.72;;
53907;SDS011;40469;47.998;7.794;2022-12-07T11:24:01;7.95;;;4.45;;
53907;SDS011;40469;47.998;7.794;2022-12-07T11:26:52;7.30;;;4.28;;
53907;SDS011;40469;47.998;7.794;2022-12-07T11:32:17;8.68;;;5.00;;
53907;SDS011;40469;47.998;7.794;2022-12-07T11:35:03;8.27;;;4.28;;
53907;SDS011;40469;47.998;7.794;2022-12-07T11:37:34;9.32;;;4.78;;
53907;SDS011;40469;47.998;7.794;2022-12-07T11:40:03;7.75;;;4.38;;
53907;SDS011;40469;47.998;7.794;2022-12-07T11:42:44;8.40;;;4.90;;
53907;SDS011;40469;47.998;7.794;2022-12-07T11:45:18;7.43;;;4.25;;
53907;SDS011;40469;47.998;7.794;2022-12-07T11:48:10;7.30;;;4.10;;
53907;SDS011;40469;47.998;7.794;2022-12-07T11:50:54;8.40;;;5.13;;
53907;SDS011;40469;47.998;7.794;2022-12-07T12:03:38;7.65;;;4.63;;
53907;SDS011;40469;47.998;7.794;2022-12-07T12:06:09;9.30;;;5.32;;
53907;SDS011;40469;47.998;7.794;2022-12-07T12:08:49;7.85;;;4.50;;
53907;SDS011;40469;47.998;7.794;2022-12-07T12:19:34;7.30;;;4.20;;
53907;SDS011;40469;47.998;7.794;2022-12-07T12:22:10;7.72;;;4.00;;
53907;SDS011;40469;47.998;7.794;2022-12-07T12:24:41;9.00;;;4.13;;
53907;SDS011;40469;47.998;7.794;2022-12-07T12:27:09;7.10;;;3.45;;
53907;SDS011;40469;47.998;7.794;2022-12-07T12:29:43;8.48;;;3.83;;
53907;SDS011;40469;47.998;7.794;2022-12-07T12:37:48;5.25;;;2.55;;
53907;SDS011;40469;47.998;7.794;2022-12-07T12:42:52;5.63;;;2.83;;
53907;SDS011;40469;47.998;7.794;2022-12-07T12:45:25;4.07;;;2.22;;
53907;SDS011;40469;47.998;7.794;2022-12-07T12:48:00;5.55;;;2.60;;
53907;SDS011;40469;47.998;7.794;2022-12-07T13:00:42;4.60;;;2.40;;
53907;SDS011;40469;47.998;7.794;2022-12-07T13:03:16;6.15;;;2.67;;
53907;SDS011;40469;47.998;7.794;2022-12-07T13:09:14;4.55;;;2.42;;
53907;SDS011;40469;47.998;7.794;2022-12-07T13:11:46;5.95;;;3.25;;
53907;SDS011;40469;47.998;7.794;2022-12-07T13:17:05;5.55;;;3.03;;
53907;SDS011;40469;47.998;7.794;2022-12-07T13:25:10;4.70;;;2.40;;
53907;SDS011;40469;47.998;7.794;2022-12-07T13:27:43;4.22;;;2.30;;
53907;SDS011;40469;47.998;7.794;2022-12-07T13:30:22;3.53;;;2.35;;
53907;SDS011;40469;47.998;7.794;2022-12-07T13:32:55;4.22;;;1.90;;
53907;SDS011;40469;47.998;7.794;2022-12-07T13:35:26;5.38;;;2.40;;
53907;SDS011;40469;47.998;7.794;2022-12-07T13:37:53;5.45;;;2.53;;
53907;SDS011;40469;47.998;7.794;2022-12-07T13:40:19;6.30;;;2.80;;
53907;SDS011;40469;47.998;7.794;2022-12-07T13:42:47;6.10;;;2.97;;
53907;SDS011;40469;47.998;7.794;2022-12-07T13:45:26;6.45;;;2.63;;
53907;SDS011;40469;47.998;7.794;2022-12-07T13:48:33;4.22;;;2.30;;
53907;SDS011;40469;47.998;7.794;2022-12-07T13:51:14;4.45;;;2.15;;
53907;SDS011;40469;47.998;7.794;2022-12-07T13:53:47;7.03;;;2.83;;
53907;SDS011;40469;47.998;7.794;2022-12-07T13:56:14;3.30;;;2.13;;
53907;SDS011;40469;47.998;7.794;2022-12-07T13:58:41;2.85;;;1.77;;
53907;SDS011;40469;47.998;7.794;2022-12-07T14:01:06;4.85;;;1.90;;
53907;SDS011;40469;47.998;7.794;2022-12-07T14:03:33;3.85;;;2.25;;
53907;SDS011;40469;47.998;7.794;2022-12-07T14:06:05;3.72;;;2.35;;
53907;SDS011;40469;47.998;7.794;2022-12-07T14:08:36;7.07;;;2.63;;
53907;SDS011;40469;47.998;7.794;2022-12-07T14:11:03;6.65;;;4.07;;
53907;SDS011;40469;47.998;7.794;2022-12-07T14:13:32;3.97;;;2.10;;
53907;SDS011;40469;47.998;7.794;2022-12-07T14:16:05;6.40;;;2.80;;
53907;SDS011;40469;47.998;7.794;2022-12-07T14:18:50;5.63;;;3.10;;
53907;SDS011;40469;47.998;7.794;2022-12-07T14:21:16;6.13;;;2.97;;
53907;SDS011;40469;47.998;7.794;2022-12-07T14:23:44;4.30;;;2.40;;
53907;SDS011;40469;47.998;7.794;2022-12-07T14:28:40;6.32;;;3.25;;
53907;SDS011;40469;47.998;7.794;2022-12-07T14:31:16;7.85;;;3.33;;
53907;SDS011;40469;47.998;7.794;2022-12-07T14:33:45;5.07;;;3.10;;
53907;SDS011;40469;47.998;7.794;2022-12-07T14:36:11;8.40;;;3.30;;
53907;SDS011;40469;47.998;7.794;2022-12-07T14:38:43;6.88;;;3.67;;
53907;SDS011;40469;47.998;7.794;2022-12-07T14:41:23;9.45;;;4.07;;
53907;SDS011;40469;47.998;7.794;2022-12-07T14:44:11;10.60;;;3.83;;
53907;SDS011;40469;47.998;7.794;2022-12-07T14:46:37;8.45;;;4.10;;
53907;SDS011;40469;47.998;7.794;2022-12-07T14:49:02;7.97;;;4.03;;
53907;SDS011;40469;47.998;7.794;2022-12-07T14:51:27;11.02;;;4.78;;
53907;SDS011;40469;47.998;7.794;2022-12-07T14:53:53;8.27;;;4.47;;
53907;SDS011;40469;47.998;7.794;2022-12-07T14:56:18;9.20;;;4.43;;
53907;SDS011;40469;47.998;7.794;2022-12-07T14:58:44;8.75;;;4.63;;
53907;SDS011;40469;47.998;7.794;2022-12-07T15:01:09;10.35;;;4.88;;
53907;SDS011;40469;47.998;7.794;2022-12-07T15:03:34;11.35;;;4.63;;
53907;SDS011;40469;47.998;7.794;2022-12-07T15:06:02;13.63;;;4.60;;
53907;SDS011;40469;47.998;7.794;2022-12-07T15:08:29;9.50;;;4.10;;
53907;SDS011;40469;47.998;7.794;2022-12-07T15:10:54;9.45;;;4.90;;
53907;SDS011;40469;47.998;7.794;2022-12-07T15:13:19;10.35;;;4.63;;
53907;SDS011;40469;47.998;7.794;2022-12-07T15:16:04;7.85;;;4.10;;
53907;SDS011;40469;47.998;7.794;2022-12-07T15:18:35;9.25;;;5.03;;
53907;SDS011;40469;47.998;7.794;2022-12-07T15:21:01;8.57;;;4.55;;
53907;SDS011;40469;47.998;7.794;2022-12-07T15:23:26;9.85;;;4.78;;
53907;SDS011;40469;47.998;7.794;2022-12-07T15:25:51;11.13;;;5.05;;
53907;SDS011;40469;47.998;7.794;2022-12-07T15:28:17;9.60;;;5.10;;
53907;SDS011;40469;47.998;7.794;2022-12-07T15:30:43;10.48;;;5.18;;
53907;SDS011;40469;47.998;7.794;2022-12-07T15:33:09;10.27;;;5.05;;
53907;SDS011;40469;47.998;7.794;2022-12-07T15:35:39;10.70;;;5.50;;
53907;SDS011;40469;47.998;7.794;2022-12-07T15:38:10;9.75;;;5.18;;
53907;SDS011;40469;47.998;7.794;2022-12-07T15:40:36;12.45;;;6.05;;
53907;SDS011;40469;47.998;7.794;2022-12-07T15:43:01;11.40;;;5.47;;
53907;SDS011;40469;47.998;7.794;2022-12-07T15:45:27;12.82;;;6.00;;
53907;SDS011;40469;47.998;7.794;2022-12-07T15:47:52;11.45;;;5.45;;
53907;SDS011;40469;47.998;7.794;2022-12-07T15:50:20;12.32;;;5.55;;
53907;SDS011;40469;47.998;7.794;2022-12-07T15:52:46;12.90;;;5.40;;
53907;SDS011;40469;47.998;7.794;2022-12-07T15:55:12;11.15;;;5.68;;
53907;SDS011;40469;47.998;7.794;2022-12-07T15:57:37;10.75;;;5.75;;
53907;SDS011;40469;47.998;7.794;2022-12-07T16:00:04;13.50;;;6.25;;
53907;SDS011;40469;47.998;7.794;2022-12-07T16:02:31;11.43;;;5.65;;
53907;SDS011;40469;47.998;7.794;2022-12-07T16:04:56;11.43;;;5.63;;
53907;SDS011;40469;47.998;7.794;2022-12-07T16:07:21;13.57;;;6.20;;
53907;SDS011;40469;47.998;7.794;2022-12-07T16:09:47;12.90;;;5.75;;
53907;SDS011;40469;47.998;7.794;2022-12-07T16:12:13;11.63;;;6.03;;
53907;SDS011;40469;47.998;7.794;2022-12-07T16:14:39;12.70;;;6.05;;
53907;SDS011;40469;47.998;7.794;2022-12-07T16:17:05;11.65;;;6.30;;
53907;SDS011;40469;47.998;7.794;2022-12-07T16:19:32;13.45;;;6.22;;
53907;SDS011;40469;47.998;7.794;2022-12-07T16:21:58;13.48;;;6.47;;
53907;SDS011;40469;47.998;7.794;2022-12-07T16:24:24;14.98;;;6.82;;
53907;SDS011;40469;47.998;7.794;2022-12-07T16:26:50;22.13;;;9.63;;
53907;SDS011;40469;47.998;7.794;2022-12-07T16:29:16;15.95;;;8.50;;
53907;SDS011;40469;47.998;7.794;2022-12-07T16:31:43;13.45;;;6.68;;
53907;SDS011;40469;47.998;7.794;2022-12-07T16:34:08;15.00;;;8.10;;
53907;SDS011;40469;47.998;7.794;2022-12-07T16:36:34;14.07;;;7.28;;
53907;SDS011;40469;47.998;7.794;2022-12-07T16:38:59;16.85;;;7.65;;
53907;SDS011;40469;47.998;7.794;2022-12-07T16:41:26;13.57;;;7.45;;
53907;SDS011;40469;47.998;7.794;2022-12-07T16:43:51;13.88;;;7.38;;
53907;SDS011;40469;47.998;7.794;2022-12-07T16:46:16;15.90;;;8.30;;